createdAt,value
2019-03-09T00:01:19.248Z,52.84
2019-03-09T00:04:09.132Z,53.15
2019-03-09T00:06:58.807Z,52.99
2019-03-09T00:09:48.556Z,52.85
2019-03-09T00:12:38.724Z,52.84
2019-03-09T00:15:29.317Z,52.89
2019-03-09T00:18:18.932Z,52.93
2019-03-09T00:21:08.840Z,52.95
2019-03-09T00:24:15.616Z,52.80
2019-03-09T00:27:30.186Z,52.80
2019-03-09T00:30:37.535Z,53.07
2019-03-09T00:33:27.623Z,53.47
2019-03-09T00:36:17.219Z,53.20
2019-03-09T00:39:07.527Z,53.27
2019-03-09T00:41:57.572Z,53.35
2019-03-09T00:44:47.765Z,53.33
2019-03-09T00:47:38.084Z,53.26
2019-03-09T00:50:27.983Z,53.31
2019-03-09T00:53:17.759Z,53.49
2019-03-09T00:56:07.748Z,53.32
2019-03-09T00:58:57.249Z,53.32
2019-03-09T01:01:46.730Z,53.35
2019-03-09T01:04:36.769Z,53.29
2019-03-09T01:07:25.901Z,53.29
2019-03-09T01:10:17.502Z,53.27
2019-03-09T01:13:07.759Z,53.20
2019-03-09T01:15:57.785Z,53.25
2019-03-09T01:18:47.866Z,53.17
2019-03-09T01:21:37.824Z,53.16
2019-03-09T01:24:27.983Z,53.09
2019-03-09T01:27:18.279Z,53.09
2019-03-09T01:30:12.177Z,53.01
2019-03-09T01:33:01.818Z,52.93
2019-03-09T01:35:52.835Z,52.75
2019-03-09T01:38:42.987Z,52.78
2019-03-09T01:41:32.942Z,52.71
2019-03-09T01:44:23.090Z,52.72
2019-03-09T01:47:12.914Z,52.63
2019-03-09T01:50:02.364Z,52.73
2019-03-09T01:52:52.216Z,52.79
2019-03-09T01:55:42.374Z,52.86
2019-03-09T01:58:32.233Z,52.81
2019-03-09T02:01:23.057Z,52.85
2019-03-09T02:04:12.998Z,52.81
2019-03-09T02:07:03.187Z,52.78
2019-03-09T02:09:53.423Z,52.82
2019-03-09T02:12:43.645Z,52.70
2019-03-09T02:15:33.227Z,52.70
2019-03-09T02:18:23.424Z,52.78
2019-03-09T02:21:13.521Z,52.82
2019-03-09T02:24:03.329Z,52.85
2019-03-09T02:26:53.143Z,52.61
2019-03-09T02:29:43.181Z,52.58
2019-03-09T02:32:33.143Z,52.59
2019-03-09T02:35:23.413Z,52.69
2019-03-09T02:38:40.675Z,52.63
2019-03-09T02:41:30.340Z,52.48
2019-03-09T02:44:20.108Z,52.46
2019-03-09T02:47:09.992Z,52.41
2019-03-09T02:50:00.434Z,52.48
2019-03-09T02:52:50.290Z,52.36
2019-03-09T02:55:40.034Z,52.45
2019-03-09T02:58:29.712Z,52.33
2019-03-09T03:01:32.588Z,52.28
2019-03-09T03:04:22.600Z,52.14
2019-03-09T03:07:12.469Z,52.24
2019-03-09T03:10:02.156Z,52.10
2019-03-09T03:12:53.077Z,52.00
2019-03-09T03:15:43.311Z,51.95
2019-03-09T03:18:33.418Z,51.95
2019-03-09T03:21:23.955Z,51.79
2019-03-09T03:24:13.272Z,51.76
2019-03-09T03:27:03.204Z,51.71
2019-03-09T03:29:52.878Z,51.56
2019-03-09T03:32:42.664Z,51.67
2019-03-09T03:35:32.743Z,51.54
2019-03-09T03:38:22.724Z,51.54
2019-03-09T03:41:12.048Z,51.35
2019-03-09T03:44:01.882Z,51.31
2019-03-09T03:46:52.053Z,51.27
2019-03-09T03:49:42.313Z,51.39
2019-03-09T03:52:32.355Z,51.44
2019-03-09T03:55:22.580Z,51.44
2019-03-09T03:58:12.335Z,51.57
2019-03-09T04:01:02.262Z,51.56
2019-03-09T04:03:51.666Z,51.69
2019-03-09T04:06:42.708Z,51.50
2019-03-09T04:09:32.685Z,51.64
2019-03-09T04:12:22.833Z,51.56
2019-03-09T04:15:13.531Z,51.71
2019-03-09T04:18:03.376Z,51.60
2019-03-09T04:20:53.481Z,51.71
2019-03-09T04:23:42.985Z,51.64
2019-03-09T04:26:32.582Z,51.57
2019-03-09T04:29:22.305Z,51.72
2019-03-09T04:32:12.417Z,51.77
2019-03-09T04:35:02.557Z,51.69
2019-03-09T04:37:52.530Z,51.65
2019-03-09T04:40:42.528Z,51.59
2019-03-09T04:43:32.830Z,51.56
2019-03-09T04:46:22.793Z,51.48
2019-03-09T04:49:12.443Z,51.56
2019-03-09T04:52:01.922Z,51.56
2019-03-09T04:54:51.652Z,51.52
2019-03-09T04:57:41.296Z,51.73
2019-03-09T05:00:31.021Z,51.66
2019-03-09T05:03:21.263Z,51.69
2019-03-09T05:06:15.354Z,51.78
2019-03-09T05:09:45.968Z,52.00
2019-03-09T05:12:36.068Z,52.18
2019-03-09T05:15:25.859Z,52.28
2019-03-09T05:18:15.716Z,52.45
2019-03-09T05:21:05.497Z,52.47
2019-03-09T05:23:59.785Z,52.23
2019-03-09T05:26:48.116Z,52.51
2019-03-09T05:29:37.857Z,52.54
2019-03-09T05:32:27.453Z,53.19
2019-03-09T05:35:17.265Z,53.50
2019-03-09T05:38:06.705Z,54.08
2019-03-09T05:40:56.547Z,54.42
2019-03-09T05:43:46.403Z,55.17
2019-03-09T05:46:36.136Z,55.93
2019-03-09T05:49:26.065Z,56.09
2019-03-09T05:52:31.722Z,56.44
2019-03-09T05:55:23.165Z,57.60
2019-03-09T05:58:12.918Z,58.27
2019-03-09T06:01:02.896Z,59.01
2019-03-09T06:03:53.010Z,59.24
2019-03-09T06:06:42.773Z,59.47
2019-03-09T06:09:32.546Z,59.86
2019-03-09T06:12:22.737Z,60.32
2019-03-09T06:15:12.773Z,60.07
2019-03-09T06:18:02.710Z,60.77
2019-03-09T06:20:52.417Z,60.76
2019-03-09T06:23:42.502Z,61.19
2019-03-09T06:26:32.210Z,61.03
2019-03-09T06:29:21.948Z,61.35
2019-03-09T06:33:05.961Z,61.39
2019-03-09T06:36:23.373Z,61.55
2019-03-09T06:39:41.651Z,61.85
2019-03-09T06:42:45.268Z,61.80
2019-03-09T06:45:35.887Z,61.95
2019-03-09T06:48:25.882Z,61.83
2019-03-09T06:51:15.781Z,61.52
2019-03-09T06:54:06.135Z,61.34
2019-03-09T06:56:56.069Z,61.15
2019-03-09T06:59:46.658Z,60.82
2019-03-09T07:02:36.751Z,60.39
2019-03-09T07:05:26.894Z,60.23
2019-03-09T07:08:16.674Z,59.96
2019-03-09T07:11:06.188Z,59.61
2019-03-09T07:13:56.180Z,59.36
2019-03-09T07:16:45.846Z,58.87
2019-03-09T07:19:35.612Z,58.81
2019-03-09T07:22:25.510Z,58.60
2019-03-09T07:25:15.729Z,58.46
2019-03-09T07:28:11.878Z,58.29
2019-03-09T07:31:01.472Z,58.17
2019-03-09T07:34:21.913Z,58.07
2019-03-09T07:37:11.694Z,57.89
2019-03-09T07:40:01.229Z,57.90
2019-03-09T07:42:52.088Z,57.67
2019-03-09T07:45:41.526Z,57.47
2019-03-09T07:48:31.324Z,57.23
2019-03-09T07:51:21.108Z,56.94
2019-03-09T07:54:11.295Z,56.72
2019-03-09T07:57:01.335Z,56.39
2019-03-09T07:59:51.151Z,55.43
2019-03-09T08:02:41.328Z,54.20
2019-03-09T08:05:30.856Z,52.26
2019-03-09T08:08:20.695Z,51.96
2019-03-09T08:11:10.567Z,51.52
2019-03-09T08:14:01.753Z,51.53
2019-03-09T08:16:51.875Z,50.97
2019-03-09T08:19:41.704Z,50.30
2019-03-09T08:22:31.294Z,50.67
2019-03-09T08:25:21.119Z,50.46
2019-03-09T08:28:10.893Z,50.21
2019-03-09T08:31:00.956Z,49.57
2019-03-09T08:33:50.775Z,49.94
2019-03-09T08:36:40.661Z,50.04
2019-03-09T08:39:30.558Z,50.70
2019-03-09T08:42:20.619Z,51.00
2019-03-09T08:45:13.314Z,51.44
2019-03-09T08:48:03.388Z,51.80
2019-03-09T08:50:53.455Z,51.91
2019-03-09T08:53:43.210Z,52.49
2019-03-09T08:56:33.627Z,52.67
2019-03-09T08:59:23.617Z,52.68
2019-03-09T09:02:13.187Z,52.90
2019-03-09T09:05:04.443Z,53.01
2019-03-09T09:07:54.354Z,53.00
2019-03-09T09:10:44.608Z,52.89
2019-03-09T09:13:34.105Z,52.96
2019-03-09T09:16:23.717Z,52.66
2019-03-09T09:19:13.781Z,51.83
2019-03-09T09:22:04.059Z,50.97
2019-03-09T09:24:54.078Z,50.55
2019-03-09T09:27:43.890Z,49.58
2019-03-09T09:30:34.769Z,49.01
2019-03-09T09:33:24.900Z,48.40
2019-03-09T09:36:14.796Z,47.54
2019-03-09T09:39:05.873Z,47.16
2019-03-09T09:41:57.195Z,46.03
2019-03-09T09:44:46.975Z,46.08
2019-03-09T09:47:37.158Z,45.69
2019-03-09T09:50:27.322Z,45.35
2019-03-09T09:53:17.406Z,45.12
2019-03-09T09:56:07.289Z,45.25
2019-03-09T09:58:57.196Z,45.36
2019-03-09T10:01:47.141Z,45.42
2019-03-09T10:04:37.052Z,45.36
2019-03-09T10:07:26.943Z,45.35
2019-03-09T10:10:18.226Z,44.90
2019-03-09T10:13:08.015Z,43.35
2019-03-09T10:15:58.150Z,43.43
2019-03-09T10:18:47.666Z,43.98
2019-03-09T10:21:37.109Z,43.72
2019-03-09T10:24:27.153Z,43.64
2019-03-09T10:27:17.289Z,43.66
2019-03-09T10:30:09.078Z,43.36
2019-03-09T10:32:58.818Z,42.46
2019-03-09T10:35:48.293Z,42.61
2019-03-09T10:38:38.007Z,42.48
2019-03-09T10:41:27.925Z,42.13
2019-03-09T10:44:17.644Z,42.31
2019-03-09T10:47:07.638Z,42.32
2019-03-09T10:49:57.574Z,42.74
2019-03-09T10:52:48.438Z,42.75
2019-03-09T10:55:38.750Z,42.73
2019-03-09T10:58:28.744Z,42.34
2019-03-09T11:01:18.663Z,42.09
2019-03-09T11:04:08.442Z,42.38
2019-03-09T11:06:58.267Z,42.17
2019-03-09T11:09:48.754Z,42.21
2019-03-09T11:12:39.857Z,42.43
2019-03-09T11:15:29.961Z,42.42
2019-03-09T11:18:19.626Z,42.61
2019-03-09T11:21:09.869Z,42.29
2019-03-09T11:24:00.013Z,42.44
2019-03-09T11:26:49.917Z,42.68
2019-03-09T11:29:40.327Z,42.82
2019-03-09T11:32:30.461Z,42.74
2019-03-09T11:35:20.548Z,42.69
2019-03-09T11:38:10.341Z,42.59
2019-03-09T11:41:00.953Z,42.12
2019-03-09T11:43:50.979Z,42.28
2019-03-09T11:46:40.505Z,42.40
2019-03-09T11:49:30.075Z,42.88
2019-03-09T11:52:20.684Z,42.88
2019-03-09T11:55:10.652Z,42.99
2019-03-09T11:58:00.067Z,42.70
2019-03-09T12:00:49.883Z,42.42
2019-03-09T12:03:39.296Z,42.72
2019-03-09T12:06:29.492Z,42.88
2019-03-09T12:09:19.029Z,43.16
2019-03-09T12:12:08.719Z,42.98
2019-03-09T12:14:58.821Z,42.86
2019-03-09T12:17:50.540Z,42.66
2019-03-09T12:20:39.096Z,42.57
2019-03-09T12:23:28.452Z,42.73
2019-03-09T12:26:17.942Z,42.56
2019-03-09T12:29:08.173Z,42.72
2019-03-09T12:31:57.595Z,42.67
2019-03-09T12:34:47.111Z,42.66
2019-03-09T12:37:37.030Z,42.18
2019-03-09T12:40:26.655Z,41.88
2019-03-09T12:43:16.015Z,42.37
2019-03-09T12:46:06.212Z,42.63
2019-03-09T12:48:56.607Z,42.74
2019-03-09T12:51:47.915Z,42.62
2019-03-09T12:54:37.541Z,42.37
2019-03-09T12:57:27.543Z,42.51
2019-03-09T13:00:18.614Z,42.42
2019-03-09T13:03:08.742Z,42.42
2019-03-09T13:05:58.652Z,42.58
2019-03-09T13:08:48.803Z,42.77
2019-03-09T13:11:38.651Z,42.94
2019-03-09T13:14:28.541Z,42.84
2019-03-09T13:17:18.716Z,42.59
2019-03-09T13:20:09.208Z,42.64
2019-03-09T13:22:58.997Z,42.65
2019-03-09T13:25:48.845Z,42.84
2019-03-09T13:28:38.359Z,42.32
2019-03-09T13:31:28.184Z,41.96
2019-03-09T13:34:18.107Z,42.08
2019-03-09T13:37:08.348Z,41.40
2019-03-09T13:39:58.270Z,41.43
2019-03-09T13:42:48.199Z,40.80
2019-03-09T13:45:37.584Z,40.54
2019-03-09T13:48:27.470Z,41.07
2019-03-09T13:51:17.280Z,40.83
2019-03-09T13:54:06.869Z,40.82
2019-03-09T13:56:56.076Z,40.84
2019-03-09T13:59:45.851Z,40.83
2019-03-09T14:02:35.702Z,40.58
2019-03-09T14:05:25.377Z,40.77
2019-03-09T14:08:14.747Z,40.70
2019-03-09T14:11:04.939Z,40.54
2019-03-09T14:13:54.932Z,40.69
2019-03-09T14:16:44.189Z,40.60
2019-03-09T14:19:33.435Z,40.44
2019-03-09T14:22:24.091Z,40.31
2019-03-09T14:25:14.900Z,40.43
2019-03-09T14:28:04.950Z,40.08
2019-03-09T14:30:54.946Z,39.94
2019-03-09T14:33:44.927Z,40.05
2019-03-09T14:36:34.804Z,39.93
2019-03-09T14:39:24.678Z,39.66
2019-03-09T14:42:14.371Z,39.36
2019-03-09T14:45:06.170Z,38.52
2019-03-09T14:47:56.594Z,37.53
2019-03-09T14:50:46.935Z,37.11
2019-03-09T14:53:36.857Z,37.24
2019-03-09T14:56:27.019Z,37.65
2019-03-09T14:59:16.720Z,38.31
2019-03-09T15:02:06.892Z,38.68
2019-03-09T15:04:57.111Z,38.50
2019-03-09T15:07:47.184Z,38.74
2019-03-09T15:10:37.012Z,38.87
2019-03-09T15:13:26.834Z,39.08
2019-03-09T15:16:16.516Z,39.11
2019-03-09T15:19:06.674Z,39.31
2019-03-09T15:21:56.381Z,39.43
2019-03-09T15:24:46.553Z,39.61
2019-03-09T15:27:36.398Z,40.02
2019-03-09T15:30:26.253Z,40.39
2019-03-09T15:33:16.235Z,40.67
2019-03-09T15:36:06.072Z,41.00
2019-03-09T15:38:56.085Z,41.12
2019-03-09T15:41:45.783Z,41.36
2019-03-09T15:44:35.741Z,41.51
2019-03-09T15:47:25.616Z,41.41
2019-03-09T15:50:15.907Z,41.54
2019-03-09T15:53:06.263Z,41.69
2019-03-09T15:55:56.503Z,41.93
2019-03-09T15:58:46.742Z,42.01
2019-03-09T16:01:36.480Z,42.09
2019-03-09T16:04:26.073Z,42.21
2019-03-09T16:07:16.274Z,42.47
2019-03-09T16:10:07.708Z,42.64
2019-03-09T16:12:57.670Z,42.83
2019-03-09T16:15:47.658Z,42.87
2019-03-09T16:18:38.021Z,43.33
2019-03-09T16:21:27.783Z,44.72
2019-03-09T16:24:17.709Z,45.64
2019-03-09T16:27:07.715Z,46.83
2019-03-09T16:29:57.544Z,47.57
2019-03-09T16:32:48.519Z,47.61
2019-03-09T16:35:38.185Z,47.23
2019-03-09T16:38:28.095Z,47.14
2019-03-09T16:41:18.383Z,47.17
2019-03-09T16:44:08.279Z,47.16
2019-03-09T16:46:57.988Z,47.23
2019-03-09T16:49:48.278Z,46.92
2019-03-09T16:52:38.299Z,47.00
2019-03-09T16:55:28.026Z,46.92
2019-03-09T16:58:17.994Z,47.75
2019-03-09T17:01:07.958Z,49.11
2019-03-09T17:03:57.795Z,50.10
2019-03-09T17:06:47.370Z,50.67
2019-03-09T17:09:37.412Z,51.51
2019-03-09T17:12:27.706Z,51.69
2019-03-09T17:15:16.760Z,52.39
2019-03-09T17:18:07.108Z,52.16
2019-03-09T17:20:56.999Z,51.76
2019-03-09T17:23:46.890Z,52.00
2019-03-09T17:26:36.532Z,51.69
2019-03-09T17:29:26.266Z,51.76
2019-03-09T17:32:25.542Z,51.58
2019-03-09T17:35:09.111Z,52.55
2019-03-09T17:37:58.876Z,53.41
2019-03-09T17:40:48.491Z,54.73
2019-03-09T17:43:39.380Z,56.31
2019-03-09T17:46:29.767Z,56.99
2019-03-09T17:49:19.461Z,58.10
2019-03-09T17:52:09.520Z,59.39
2019-03-09T17:54:59.202Z,62.58
2019-03-09T17:57:49.058Z,63.86
2019-03-09T18:00:43.675Z,64.36
2019-03-09T18:03:32.669Z,65.50
2019-03-09T18:06:22.817Z,66.32
2019-03-09T18:09:12.501Z,66.28
2019-03-09T18:12:02.636Z,65.77
2019-03-09T18:14:52.377Z,65.81
2019-03-09T18:17:42.273Z,66.08
2019-03-09T18:20:32.368Z,65.88
2019-03-09T18:23:22.472Z,66.21
2019-03-09T18:26:11.922Z,66.20
2019-03-09T18:29:02.154Z,66.25
2019-03-09T18:31:52.111Z,66.54
2019-03-09T18:34:41.576Z,66.49
2019-03-09T18:37:32.168Z,66.92
2019-03-09T18:40:21.713Z,67.43
2019-03-09T18:43:11.584Z,67.71
2019-03-09T18:46:01.483Z,68.30
2019-03-09T18:48:51.224Z,68.23
2019-03-09T18:51:40.685Z,67.68
2019-03-09T18:54:30.955Z,67.17
2019-03-09T18:57:21.270Z,67.31
2019-03-09T19:00:13.862Z,67.00
2019-03-09T19:03:04.917Z,66.37
2019-03-09T19:05:55.095Z,65.57
2019-03-09T19:08:45.456Z,65.59
2019-03-09T19:11:35.603Z,65.93
2019-03-09T19:14:25.478Z,65.55
2019-03-09T19:17:15.555Z,64.96
2019-03-09T19:20:06.219Z,63.67
2019-03-09T19:22:56.236Z,64.24
2019-03-09T19:25:46.287Z,64.21
2019-03-09T19:28:36.188Z,64.08
2019-03-09T19:31:25.927Z,63.62
2019-03-09T19:34:15.376Z,63.25
2019-03-09T19:37:05.650Z,62.57
2019-03-09T19:39:55.176Z,63.21
2019-03-09T19:42:44.901Z,62.45
2019-03-09T19:45:34.779Z,61.23
2019-03-09T19:48:24.794Z,61.86
2019-03-09T19:51:14.315Z,61.79
2019-03-09T19:54:03.988Z,61.51
2019-03-09T19:56:54.147Z,61.64
2019-03-09T19:59:43.708Z,60.78
2019-03-09T20:02:33.591Z,61.25
2019-03-09T20:05:23.051Z,61.29
2019-03-09T20:08:13.253Z,61.43
2019-03-09T20:11:02.815Z,61.69
2019-03-09T20:13:52.218Z,62.13
2019-03-09T20:16:41.926Z,62.29
2019-03-09T20:19:31.239Z,61.28
2019-03-09T20:22:20.923Z,61.46
2019-03-09T20:25:10.480Z,60.86
2019-03-09T20:27:59.842Z,62.23
2019-03-09T20:30:49.364Z,60.77
2019-03-09T20:33:38.924Z,61.50
2019-03-09T20:36:28.697Z,60.47
2019-03-09T20:39:18.858Z,61.19
2019-03-09T20:42:08.718Z,60.50
2019-03-09T20:44:59.043Z,61.15
2019-03-09T20:47:49.279Z,61.18
2019-03-09T20:50:39.245Z,60.17
2019-03-09T20:53:29.493Z,59.84
2019-03-09T20:56:19.113Z,60.02
2019-03-09T20:59:08.929Z,60.28
2019-03-09T21:02:00.189Z,60.92
2019-03-09T21:04:50.100Z,59.84
2019-03-09T21:07:40.296Z,59.71
2019-03-09T21:10:30.283Z,59.92
2019-03-09T21:13:20.225Z,59.95
2019-03-09T21:16:10.086Z,60.40
2019-03-09T21:19:00.332Z,59.27
2019-03-09T21:21:50.212Z,58.33
2019-03-09T21:24:39.904Z,59.17
2019-03-09T21:27:29.606Z,59.99
2019-03-09T21:30:19.975Z,59.63
2019-03-09T21:33:10.062Z,60.37
2019-03-09T21:35:59.849Z,59.90
2019-03-09T21:38:49.593Z,61.15
2019-03-09T21:41:39.395Z,60.62
2019-03-09T21:44:29.315Z,59.71
2019-03-09T21:47:19.336Z,60.44
2019-03-09T21:50:11.424Z,60.84
2019-03-09T21:53:01.402Z,60.77
2019-03-09T21:55:50.993Z,60.23
2019-03-09T21:58:40.573Z,60.73
2019-03-09T22:01:30.990Z,60.37
2019-03-09T22:04:21.358Z,60.09
2019-03-09T22:07:11.181Z,61.07
2019-03-09T22:10:01.056Z,59.69
2019-03-09T22:12:50.831Z,59.79
2019-03-09T22:15:40.378Z,60.38
2019-03-09T22:18:29.848Z,60.50
2019-03-09T22:21:19.708Z,58.70
2019-03-09T22:24:10.898Z,58.44
2019-03-09T22:27:00.509Z,59.84
2019-03-09T22:29:49.976Z,59.07
2019-03-09T22:32:39.429Z,58.64
2019-03-09T22:35:28.970Z,59.07
2019-03-09T22:38:18.738Z,58.04
2019-03-09T22:41:09.121Z,59.46
2019-03-09T22:43:59.449Z,59.26
2019-03-09T22:46:49.587Z,58.89
2019-03-09T22:49:39.423Z,59.65
2019-03-09T22:52:29.393Z,59.68
2019-03-09T22:55:19.366Z,59.42
2019-03-09T22:58:09.414Z,59.29
2019-03-09T23:00:59.724Z,59.46
2019-03-09T23:03:49.959Z,59.44
2019-03-09T23:06:39.787Z,58.97
2019-03-09T23:09:29.769Z,59.30
2019-03-09T23:12:19.696Z,59.37
2019-03-09T23:15:11.578Z,59.92
2019-03-09T23:18:01.551Z,60.22
2019-03-09T23:20:51.331Z,60.25
2019-03-09T23:23:40.976Z,59.70
2019-03-09T23:26:30.837Z,60.21
2019-03-09T23:29:20.916Z,60.78
2019-03-09T23:32:10.272Z,60.42
2019-03-09T23:35:00.471Z,60.33
2019-03-09T23:37:50.674Z,59.75
2019-03-09T23:40:40.107Z,59.62
2019-03-09T23:43:29.799Z,59.58
2019-03-09T23:46:19.853Z,59.73
2019-03-09T23:49:09.589Z,60.01
2019-03-09T23:51:59.605Z,60.34
2019-03-09T23:54:49.471Z,60.54
2019-03-09T23:57:39.842Z,60.99
